createdAt,value
2023-01-04T00:00:12.128Z,30.13
2023-01-04T00:02:40.026Z,28.50
2023-01-04T00:05:08.457Z,27.97
2023-01-04T00:07:36.254Z,27.97
2023-01-04T00:10:04.646Z,28.33
2023-01-04T00:12:32.431Z,26.53
2023-01-04T00:15:00.183Z,27.03
2023-01-04T00:17:30.287Z,27.17
2023-01-04T00:19:58.062Z,26.83
2023-01-04T00:22:25.827Z,26.97
2023-01-04T00:24:53.634Z,29.07
2023-01-04T00:27:21.437Z,29.07
2023-01-04T00:29:49.214Z,29.67
2023-01-04T00:32:17.101Z,28.67
2023-01-04T00:34:46.241Z,27.43
2023-01-04T00:37:14.028Z,27.23
2023-01-04T00:39:41.790Z,28.33
2023-01-04T00:42:09.525Z,27.20
2023-01-04T00:44:37.245Z,25.57
2023-01-04T00:47:05.471Z,25.83
2023-01-04T00:49:33.461Z,25.03
2023-01-04T00:52:02.705Z,26.67
2023-01-04T00:54:30.487Z,25.33
2023-01-04T00:56:58.899Z,26.40
2023-01-04T00:59:26.801Z,24.13
2023-01-04T01:01:54.766Z,24.93
2023-01-04T01:04:24.681Z,24.77
2023-01-04T01:06:52.974Z,24.17
2023-01-04T01:09:23.853Z,24.27
2023-01-04T01:11:52.174Z,23.33
2023-01-04T01:14:22.296Z,23.53
2023-01-04T01:16:58.753Z,23.10
2023-01-04T01:19:28.153Z,24.37
2023-01-04T01:21:57.188Z,23.00
2023-01-04T01:24:29.810Z,23.43
2023-01-04T01:26:57.755Z,24.00
2023-01-04T01:29:25.614Z,24.47
2023-01-04T01:31:53.591Z,24.77
2023-01-04T01:34:22.015Z,23.67
2023-01-04T01:36:50.149Z,24.73
2023-01-04T01:39:17.963Z,22.87
2023-01-04T01:41:47.242Z,23.90
2023-01-04T01:44:52.268Z,23.73
2023-01-04T01:47:22.106Z,21.83
2023-01-04T01:49:51.461Z,21.73
2023-01-04T01:52:23.871Z,21.33
2023-01-04T01:54:56.487Z,21.60
2023-01-04T01:57:27.567Z,20.20
2023-01-04T01:59:57.303Z,21.07
2023-01-04T02:02:25.294Z,21.23
2023-01-04T02:04:53.496Z,20.83
2023-01-04T02:07:24.059Z,20.20
2023-01-04T02:09:52.149Z,18.93
2023-01-04T02:12:19.978Z,19.60
2023-01-04T02:14:51.226Z,17.77
2023-01-04T02:17:25.683Z,17.80
2023-01-04T02:20:11.429Z,17.17
2023-01-04T02:23:18.879Z,16.83
2023-01-04T02:26:28.514Z,16.80
2023-01-04T02:29:12.461Z,15.53
2023-01-04T02:31:43.477Z,16.13
2023-01-04T02:34:18.395Z,15.40
2023-01-04T02:36:50.139Z,14.97
2023-01-04T02:39:22.065Z,15.67
2023-01-04T02:41:53.563Z,14.67
2023-01-04T02:44:44.323Z,15.77
2023-01-04T02:47:16.955Z,14.93
2023-01-04T02:50:05.158Z,15.13
2023-01-04T02:52:33.752Z,13.87
2023-01-04T02:55:02.887Z,14.13
2023-01-04T02:57:42.488Z,12.30
2023-01-04T03:00:27.605Z,12.83
2023-01-04T03:03:27.625Z,13.60
2023-01-04T03:06:17.280Z,13.07
2023-01-04T03:08:52.988Z,12.63
2023-01-04T03:11:38.305Z,12.20
2023-01-04T03:14:31.668Z,12.47
2023-01-04T03:16:58.600Z,12.23
2023-01-04T03:19:42.640Z,12.93
2023-01-04T03:22:32.555Z,13.80
2023-01-04T03:25:18.923Z,12.93
2023-01-04T03:28:06.978Z,12.47
2023-01-04T03:30:53.910Z,12.87
2023-01-04T03:33:39.352Z,12.80
2023-01-04T03:36:15.831Z,11.93
2023-01-04T03:39:07.634Z,12.50
2023-01-04T03:41:56.742Z,12.27
2023-01-04T03:44:46.866Z,13.10
2023-01-04T03:47:35.259Z,13.23
2023-01-04T03:50:06.628Z,11.57
2023-01-04T03:52:36.457Z,12.10
2023-01-04T03:55:06.420Z,12.23
2023-01-04T03:57:34.940Z,12.00
2023-01-04T04:00:07.281Z,12.47
2023-01-04T04:02:36.915Z,12.40
2023-01-04T04:05:22.778Z,11.73
2023-01-04T04:08:09.486Z,11.77
2023-01-04T04:10:37.294Z,10.83
2023-01-04T04:13:05.042Z,11.37
2023-01-04T04:15:32.797Z,11.73
2023-01-04T04:18:00.580Z,9.87
2023-01-04T04:20:28.339Z,9.97
2023-01-04T04:22:57.496Z,10.20
2023-01-04T04:25:25.299Z,9.60
2023-01-04T04:27:53.058Z,9.60
2023-01-04T04:30:20.843Z,9.20
2023-01-04T04:32:48.590Z,8.73
2023-01-04T04:35:16.370Z,8.93
2023-01-04T04:37:44.181Z,9.63
2023-01-04T04:40:39.225Z,9.00
2023-01-04T04:43:08.700Z,8.70
2023-01-04T04:45:36.551Z,7.70
2023-01-04T04:48:04.623Z,7.70
2023-01-04T04:50:32.408Z,6.27
2023-01-04T04:53:00.220Z,8.23
2023-01-04T04:55:29.440Z,7.20
2023-01-04T04:57:57.197Z,7.13
2023-01-04T05:00:25.044Z,7.10
2023-01-04T05:02:52.921Z,7.10
2023-01-04T05:05:21.807Z,7.03
2023-01-04T05:07:49.539Z,6.50
2023-01-04T05:10:17.553Z,6.37
2023-01-04T05:13:00.729Z,5.70
2023-01-04T05:15:29.438Z,6.17
2023-01-04T05:17:57.239Z,6.43
2023-01-04T05:20:25.240Z,6.37
2023-01-04T05:22:53.228Z,6.07
2023-01-04T05:25:21.959Z,5.50
2023-01-04T05:27:51.150Z,5.90
2023-01-04T05:30:36.682Z,6.07
2023-01-04T05:33:05.736Z,5.77
2023-01-04T05:35:33.525Z,5.97
2023-01-04T05:38:01.335Z,5.40
2023-01-04T05:40:29.495Z,5.40
2023-01-04T05:42:58.804Z,5.40
2023-01-04T05:45:26.999Z,4.70
2023-01-04T05:47:55.263Z,4.93
2023-01-04T05:50:24.011Z,4.97
2023-01-04T05:52:51.978Z,4.30
2023-01-04T05:55:20.371Z,4.20
2023-01-04T05:57:48.164Z,4.50
2023-01-04T06:00:17.810Z,4.73
2023-01-04T06:02:45.657Z,4.17
2023-01-04T06:05:14.014Z,4.00
2023-01-04T06:07:42.032Z,4.07
2023-01-04T06:10:11.373Z,4.40
2023-01-04T06:12:39.239Z,4.30
2023-01-04T06:15:08.594Z,4.30
2023-01-04T06:17:38.028Z,4.33
2023-01-04T06:20:09.163Z,5.43
2023-01-04T06:22:37.037Z,4.27
2023-01-04T06:25:05.166Z,4.03
2023-01-04T06:27:32.979Z,4.63
2023-01-04T06:30:00.736Z,4.03
2023-01-04T06:32:28.545Z,3.80
2023-01-04T06:34:57.719Z,3.90
2023-01-04T06:37:25.525Z,3.80
2023-01-04T06:39:53.457Z,3.80
2023-01-04T06:42:38.582Z,4.20
2023-01-04T06:45:07.482Z,4.77
2023-01-04T06:47:35.243Z,4.53
2023-01-04T06:50:05.010Z,4.00
2023-01-04T06:52:32.809Z,4.27
2023-01-04T06:55:00.614Z,3.90
2023-01-04T06:57:28.681Z,4.23
2023-01-04T06:59:56.431Z,5.63
2023-01-04T07:02:24.610Z,3.70
2023-01-04T07:04:52.623Z,3.70
2023-01-04T07:07:21.929Z,4.57
2023-01-04T07:09:49.880Z,4.77
2023-01-04T07:12:17.656Z,4.53
2023-01-04T07:14:45.467Z,4.50
2023-01-04T07:17:13.246Z,4.43
2023-01-04T07:19:41.207Z,4.90
2023-01-04T07:22:09.012Z,4.50
2023-01-04T07:24:38.105Z,5.37
2023-01-04T07:27:05.821Z,4.10
2023-01-04T07:29:33.619Z,4.63
2023-01-04T07:32:01.369Z,4.80
2023-01-04T07:34:29.482Z,4.33
2023-01-04T07:36:57.228Z,4.40
2023-01-04T07:39:25.003Z,4.47
2023-01-04T07:41:54.147Z,4.07
2023-01-04T07:44:22.581Z,4.43
2023-01-04T07:46:50.418Z,4.70
2023-01-04T07:49:19.298Z,5.83
2023-01-04T07:51:48.009Z,4.90
2023-01-04T07:54:18.329Z,4.97
2023-01-04T07:56:46.759Z,4.97
2023-01-04T07:59:17.357Z,4.90
2023-01-04T08:01:45.926Z,4.80
2023-01-04T08:04:14.784Z,4.53
2023-01-04T08:06:43.750Z,4.57
2023-01-04T08:09:12.886Z,4.57
2023-01-04T08:11:40.965Z,4.57
2023-01-04T08:14:08.804Z,4.33
2023-01-04T08:16:39.540Z,5.20
2023-01-04T08:19:09.312Z,5.00
2023-01-04T08:21:37.601Z,4.30
2023-01-04T08:24:06.197Z,4.70
2023-01-04T08:26:34.665Z,4.27
2023-01-04T08:29:02.484Z,4.27
2023-01-04T08:31:32.416Z,4.07
2023-01-04T08:34:04.642Z,5.00
2023-01-04T08:36:33.843Z,4.90
2023-01-04T08:39:04.808Z,5.07
2023-01-04T08:44:23.163Z,4.90
2023-01-04T08:46:54.102Z,5.43
2023-01-04T08:49:24.737Z,5.33
2023-01-04T08:51:52.711Z,6.63
2023-01-04T08:54:20.636Z,5.20
2023-01-04T08:56:48.451Z,5.73
2023-01-04T08:59:16.205Z,4.77
2023-01-04T09:01:44.081Z,5.00
2023-01-04T09:04:12.035Z,5.37
2023-01-04T09:06:41.245Z,5.40
2023-01-04T09:09:09.054Z,5.50
2023-01-04T09:11:38.969Z,5.33
2023-01-04T09:14:09.369Z,5.83
2023-01-04T09:16:38.235Z,4.80
2023-01-04T09:19:06.701Z,4.63
2023-01-04T09:21:34.651Z,5.90
2023-01-04T09:24:03.928Z,5.70
2023-01-04T09:26:31.750Z,5.80
2023-01-04T09:28:59.719Z,5.67
2023-01-04T09:31:29.030Z,5.20
2023-01-04T09:34:15.456Z,5.30
2023-01-04T09:36:44.985Z,4.90
2023-01-04T09:39:21.511Z,5.33
2023-01-04T09:41:56.804Z,4.57
2023-01-04T09:45:12.165Z,4.90
2023-01-04T09:47:29.680Z,4.40
2023-01-04T09:50:00.261Z,3.83
2023-01-04T09:52:40.313Z,4.13
2023-01-04T09:55:39.672Z,4.30
2023-01-04T09:58:04.018Z,3.60
2023-01-04T10:00:41.773Z,4.23
2023-01-04T10:03:14.779Z,3.93
2023-01-04T10:05:44.112Z,4.20
2023-01-04T10:08:17.369Z,4.57
2023-01-04T10:10:51.849Z,4.17
2023-01-04T10:13:37.805Z,4.37
2023-01-04T10:16:17.380Z,4.80
2023-01-04T10:21:42.283Z,3.70
2023-01-04T10:24:26.741Z,3.20
2023-01-04T10:27:00.648Z,3.20
2023-01-04T10:29:40.745Z,3.53
2023-01-04T10:32:18.328Z,3.00
2023-01-04T10:34:48.524Z,3.30
2023-01-04T10:37:20.352Z,3.83
2023-01-04T10:39:52.782Z,3.13
2023-01-04T10:42:32.237Z,3.80
2023-01-04T10:45:18.321Z,4.10
2023-01-04T10:47:54.278Z,4.90
2023-01-04T10:50:27.778Z,5.17
2023-01-04T10:53:02.796Z,5.17
2023-01-04T10:55:37.634Z,6.03
2023-01-04T10:58:12.323Z,6.80
2023-01-04T11:00:44.377Z,6.90
2023-01-04T11:03:16.236Z,6.37
2023-01-04T11:05:47.874Z,6.13
2023-01-04T11:08:20.744Z,6.67
2023-01-04T11:10:51.893Z,5.50
2023-01-04T11:13:21.330Z,5.93
2023-01-04T11:15:49.085Z,5.60
2023-01-04T11:18:17.528Z,5.10
2023-01-04T11:20:45.307Z,5.67
2023-01-04T11:23:15.701Z,5.43
2023-01-04T11:25:53.655Z,5.60
2023-01-04T11:28:27.355Z,5.60
2023-01-04T11:30:59.286Z,6.10
2023-01-04T11:33:27.104Z,5.73
2023-01-04T11:35:57.033Z,6.03
2023-01-04T11:38:25.925Z,6.37
2023-01-04T11:40:59.357Z,7.27
2023-01-04T11:43:29.520Z,6.90
2023-01-04T11:46:00.289Z,7.30
2023-01-04T11:48:42.466Z,7.67
2023-01-04T11:51:22.335Z,6.43
2023-01-04T11:53:59.031Z,7.23
2023-01-04T11:56:29.313Z,7.10
2023-01-04T11:59:20.661Z,6.23
2023-01-04T12:04:36.716Z,6.23
2023-01-04T12:07:07.462Z,6.33
2023-01-04T12:09:35.220Z,6.10
2023-01-04T12:12:02.982Z,6.00
2023-01-04T12:14:37.063Z,5.90
2023-01-04T12:17:08.219Z,6.20
2023-01-04T12:19:37.818Z,5.30
2023-01-04T12:22:06.110Z,5.60
2023-01-04T12:24:35.093Z,6.03
2023-01-04T12:27:04.682Z,5.33
2023-01-04T12:30:02.953Z,6.00
2023-01-04T12:32:49.783Z,5.43
2023-01-04T12:36:04.049Z,5.00
2023-01-04T12:39:01.341Z,4.53
2023-01-04T12:42:01.828Z,4.50
2023-01-04T12:45:18.264Z,5.80
2023-01-04T12:48:06.553Z,4.77
2023-01-04T12:51:37.203Z,5.27
2023-01-04T12:54:24.267Z,5.97
2023-01-04T12:57:11.605Z,4.57
2023-01-04T12:59:40.409Z,4.73
2023-01-04T13:05:53.185Z,4.53
2023-01-04T13:07:55.146Z,4.30
2023-01-04T13:10:36.184Z,4.77
2023-01-04T13:13:25.604Z,5.17
2023-01-04T13:16:02.966Z,5.57
2023-01-04T13:18:36.804Z,6.00
2023-01-04T13:21:09.939Z,6.07
2023-01-04T13:23:38.259Z,6.23
2023-01-04T13:26:29.741Z,6.40
2023-01-04T13:29:08.817Z,6.90
2023-01-04T13:31:43.861Z,6.97
2023-01-04T13:34:17.955Z,7.00
2023-01-04T13:36:45.814Z,6.80
2023-01-04T13:39:14.496Z,7.17
2023-01-04T13:41:44.603Z,6.57
2023-01-04T13:44:17.437Z,6.50
2023-01-04T13:46:45.313Z,5.80
2023-01-04T13:49:16.130Z,6.97
2023-01-04T13:51:43.908Z,8.73
2023-01-04T13:54:20.274Z,9.27
2023-01-04T13:56:55.164Z,6.83
2023-01-04T13:59:23.578Z,5.60
2023-01-04T14:01:53.214Z,5.47
2023-01-04T14:04:25.988Z,4.77
2023-01-04T14:06:54.732Z,4.60
2023-01-04T14:09:24.299Z,4.67
2023-01-04T14:12:07.327Z,4.40
2023-01-04T14:14:51.255Z,4.50
2023-01-04T14:17:32.052Z,6.00
2023-01-04T14:20:01.253Z,4.63
2023-01-04T14:22:37.961Z,4.30
2023-01-04T14:25:43.670Z,4.17
2023-01-04T14:28:28.608Z,4.27
2023-01-04T14:30:58.332Z,4.63
2023-01-04T14:33:34.293Z,4.80
2023-01-04T14:36:03.350Z,4.97
2023-01-04T14:38:31.502Z,4.77
2023-01-04T14:41:11.574Z,4.87
2023-01-04T14:43:46.267Z,5.40
2023-01-04T14:46:14.175Z,5.30
2023-01-04T14:48:41.901Z,5.43
2023-01-04T14:51:09.799Z,5.43
2023-01-04T14:53:37.468Z,6.00
2023-01-04T14:56:05.426Z,5.80
2023-01-04T14:58:33.310Z,6.60
2023-01-04T15:01:02.379Z,6.60
2023-01-04T15:03:30.214Z,7.40
2023-01-04T15:05:58.222Z,8.20
2023-01-04T15:08:25.999Z,8.13
2023-01-04T15:10:59.786Z,8.03
2023-01-04T15:13:30.981Z,8.93
2023-01-04T15:16:04.235Z,9.40
2023-01-04T15:18:32.064Z,8.67
2023-01-04T15:20:59.776Z,9.07
2023-01-04T15:23:27.440Z,9.50
2023-01-04T15:25:55.139Z,9.23
2023-01-04T15:28:24.188Z,8.87
2023-01-04T15:30:52.200Z,8.53
2023-01-04T15:33:21.380Z,8.57
2023-01-04T15:35:49.109Z,8.73
2023-01-04T15:38:18.416Z,8.40
2023-01-04T15:40:46.331Z,8.60
2023-01-04T15:43:13.318Z,7.83
2023-01-04T15:45:41.055Z,9.30
2023-01-04T15:48:11.063Z,9.40
2023-01-04T15:50:41.440Z,8.87
2023-01-04T15:53:09.576Z,10.23
2023-01-04T15:55:38.202Z,11.30
2023-01-04T15:58:06.144Z,11.50
2023-01-04T16:00:35.685Z,11.63
2023-01-04T16:03:03.488Z,11.13
2023-01-04T16:05:31.541Z,11.93
2023-01-04T16:08:00.654Z,12.33
2023-01-04T16:10:28.486Z,11.30
2023-01-04T16:12:57.258Z,11.53
2023-01-04T16:15:25.242Z,11.90
2023-01-04T16:17:53.028Z,11.40
2023-01-04T16:20:20.841Z,11.47
2023-01-04T16:22:48.563Z,11.87
2023-01-04T16:25:17.902Z,12.77
2023-01-04T16:27:45.599Z,14.80
2023-01-04T16:30:14.740Z,13.73
2023-01-04T16:32:43.828Z,16.43
2023-01-04T16:35:11.967Z,15.07
2023-01-04T16:37:39.943Z,16.77
2023-01-04T16:40:09.611Z,16.20
2023-01-04T16:42:39.270Z,16.73
2023-01-04T16:45:08.182Z,18.10
2023-01-04T16:47:41.027Z,17.80
2023-01-04T16:50:10.683Z,17.57
2023-01-04T16:52:38.593Z,18.30
2023-01-04T16:55:07.790Z,16.43
2023-01-04T16:57:35.517Z,17.60
2023-01-04T17:00:05.749Z,18.13
2023-01-04T17:02:33.632Z,19.20
2023-01-04T17:05:01.388Z,20.13
2023-01-04T17:07:32.667Z,20.53
2023-01-04T17:10:01.228Z,22.57
2023-01-04T17:12:47.023Z,22.40
2023-01-04T17:15:46.158Z,22.63
2023-01-04T17:18:05.238Z,23.50
2023-01-04T17:20:33.008Z,24.83
2023-01-04T17:23:00.675Z,25.13
2023-01-04T17:25:29.625Z,27.07
2023-01-04T17:27:57.377Z,26.80
2023-01-04T17:30:26.418Z,27.83
2023-01-04T17:32:54.409Z,28.20
2023-01-04T17:35:22.254Z,28.33
2023-01-04T17:37:49.963Z,28.93
2023-01-04T17:40:22.613Z,29.07
2023-01-04T17:42:50.764Z,29.80
2023-01-04T17:45:18.428Z,30.73
2023-01-04T17:47:47.583Z,31.03
2023-01-04T17:50:15.926Z,30.93
2023-01-04T17:52:43.608Z,32.13
2023-01-04T17:55:11.409Z,30.67
2023-01-04T17:57:39.116Z,32.00
2023-01-04T18:00:07.953Z,29.93
2023-01-04T18:05:14.826Z,33.53
2023-01-04T18:07:43.603Z,34.27
2023-01-04T18:10:21.528Z,33.77
2023-01-04T18:13:00.929Z,35.13
2023-01-04T18:15:28.690Z,36.60
2023-01-04T18:17:56.362Z,38.00
2023-01-04T18:20:26.583Z,36.23
2023-01-04T18:22:54.369Z,36.57
2023-01-04T18:25:22.072Z,36.97
2023-01-04T18:27:49.847Z,36.87
2023-01-04T18:30:17.606Z,37.20
2023-01-04T18:32:45.297Z,37.87
2023-01-04T18:35:13.045Z,36.73
2023-01-04T18:37:44.990Z,36.10
2023-01-04T18:40:13.404Z,35.40
2023-01-04T18:42:41.150Z,36.70
2023-01-04T18:45:09.716Z,39.83
2023-01-04T18:47:37.409Z,41.40
2023-01-04T18:50:05.547Z,40.10
2023-01-04T18:52:33.177Z,39.87
2023-01-04T18:55:03.942Z,38.90
2023-01-04T18:57:31.568Z,40.63
2023-01-04T18:59:59.938Z,39.73
2023-01-04T19:05:13.457Z,39.83
2023-01-04T19:07:41.173Z,38.60
2023-01-04T19:10:10.816Z,38.00
2023-01-04T19:12:38.970Z,36.70
2023-01-04T19:15:08.444Z,35.77
2023-01-04T19:17:36.427Z,35.93
2023-01-04T19:20:04.544Z,37.50
2023-01-04T19:22:32.261Z,36.80
2023-01-04T19:25:00.175Z,35.40
2023-01-04T19:27:29.367Z,38.23
2023-01-04T19:29:57.094Z,36.67
2023-01-04T19:32:29.985Z,36.07
2023-01-04T19:35:02.049Z,35.37
2023-01-04T19:37:30.248Z,34.70
2023-01-04T19:39:58.173Z,35.07
2023-01-04T19:42:25.840Z,36.73
2023-01-04T19:44:54.925Z,39.57
2023-01-04T19:47:22.569Z,37.90
2023-01-04T19:49:50.325Z,37.40
2023-01-04T19:52:17.999Z,35.97
2023-01-04T19:54:45.677Z,35.50
2023-01-04T19:57:13.361Z,36.10
2023-01-04T19:59:41.072Z,36.47
2023-01-04T20:02:11.032Z,33.47
2023-01-04T20:04:39.030Z,33.40
2023-01-04T20:07:06.701Z,31.07
2023-01-04T20:09:34.528Z,30.73
2023-01-04T20:12:02.298Z,31.10
2023-01-04T20:14:30.772Z,31.37
2023-01-04T20:16:58.899Z,30.90
2023-01-04T20:19:28.003Z,30.30
2023-01-04T20:21:55.728Z,31.07
2023-01-04T20:24:23.505Z,32.67
2023-01-04T20:26:51.245Z,32.47
2023-01-04T20:29:18.924Z,31.70
2023-01-04T20:31:46.640Z,32.63
2023-01-04T20:34:14.682Z,31.00
2023-01-04T20:36:43.763Z,34.77
2023-01-04T20:39:11.635Z,32.33
2023-01-04T20:41:59.722Z,32.53
2023-01-04T20:44:26.602Z,32.30
2023-01-04T20:46:54.356Z,31.53
2023-01-04T20:49:24.214Z,31.87
2023-01-04T20:51:53.253Z,32.23
2023-01-04T20:54:20.986Z,31.80
2023-01-04T20:56:48.711Z,31.40
2023-01-04T20:59:16.383Z,32.13
2023-01-04T21:01:44.090Z,32.17
2023-01-04T21:04:15.789Z,34.07
2023-01-04T21:06:43.697Z,33.37
2023-01-04T21:09:12.873Z,36.20
2023-01-04T21:11:40.555Z,38.37
2023-01-04T21:14:11.003Z,38.10
2023-01-04T21:16:41.358Z,36.43
2023-01-04T21:19:09.235Z,37.67
2023-01-04T21:21:36.946Z,38.43
2023-01-04T21:24:04.769Z,39.47
2023-01-04T21:26:35.308Z,37.10
2023-01-04T21:29:03.003Z,36.10
2023-01-04T21:31:30.817Z,37.13
2023-01-04T21:33:58.624Z,36.13
2023-01-04T21:36:27.714Z,34.37
2023-01-04T21:38:56.681Z,36.77
2023-01-04T21:41:25.625Z,34.93
2023-01-04T21:43:55.937Z,35.53
2023-01-04T21:46:24.344Z,34.87
2023-01-04T21:48:55.176Z,35.57
2023-01-04T21:51:22.907Z,35.00
2023-01-04T21:53:50.675Z,35.20
2023-01-04T21:56:22.774Z,36.13
2023-01-04T21:58:50.781Z,38.53
2023-01-04T22:01:21.591Z,46.03
2023-01-04T22:03:49.823Z,49.03
2023-01-04T22:06:17.809Z,47.43
2023-01-04T22:08:46.515Z,42.67
2023-01-04T22:11:14.976Z,39.70
2023-01-04T22:13:43.432Z,38.97
2023-01-04T22:16:12.831Z,36.00
2023-01-04T22:18:41.907Z,36.07
2023-01-04T22:21:13.074Z,33.73
2023-01-04T22:23:41.285Z,35.23
2023-01-04T22:26:09.351Z,33.20
2023-01-04T22:28:37.518Z,32.67
2023-01-04T22:31:06.787Z,33.10
2023-01-04T22:33:35.139Z,32.63
2023-01-04T22:36:06.689Z,34.23
2023-01-04T22:38:35.593Z,35.57
2023-01-04T22:41:06.966Z,32.13
2023-01-04T22:43:34.807Z,33.17
2023-01-04T22:46:03.445Z,32.10
2023-01-04T22:48:31.218Z,32.13
2023-01-04T22:50:58.866Z,32.27
2023-01-04T22:53:28.276Z,31.87
2023-01-04T22:58:49.972Z,28.73
2023-01-04T23:01:20.710Z,31.63
2023-01-04T23:03:51.857Z,27.57
2023-01-04T23:06:20.135Z,28.53
2023-01-04T23:08:49.678Z,28.80
2023-01-04T23:11:18.824Z,27.80
2023-01-04T23:13:46.763Z,26.73
2023-01-04T23:16:16.545Z,27.30
2023-01-04T23:18:44.769Z,27.43
2023-01-04T23:21:12.848Z,26.60
2023-01-04T23:23:40.636Z,28.03
2023-01-04T23:26:13.778Z,26.80
2023-01-04T23:28:41.525Z,26.97
2023-01-04T23:31:11.646Z,29.90
2023-01-04T23:33:39.724Z,29.40
2023-01-04T23:36:09.238Z,29.40
2023-01-04T23:38:37.033Z,29.73
2023-01-04T23:41:04.780Z,26.90
2023-01-04T23:43:35.805Z,30.07
2023-01-04T23:46:06.825Z,28.47
2023-01-04T23:48:34.592Z,29.73
2023-01-04T23:51:02.323Z,28.50
2023-01-04T23:53:30.004Z,29.50
2023-01-04T23:56:02.388Z,27.63
2023-01-04T23:58:31.458Z,27.90
